createdAt,value
2022-12-26T00:02:24.153Z,96986.72
2022-12-26T00:07:28.452Z,96987.09
2022-12-26T00:12:32.037Z,96963.28
2022-12-26T00:17:37.006Z,96964.25
2022-12-26T00:22:40.569Z,96956.00
2022-12-26T00:27:44.168Z,96952.81
2022-12-26T00:32:49.139Z,96960.88
2022-12-26T00:37:52.658Z,96943.91
2022-12-26T00:42:56.130Z,96952.00
2022-12-26T00:48:01.222Z,96947.13
2022-12-26T00:53:04.814Z,96950.63
2022-12-26T00:58:08.489Z,96927.91
2022-12-26T01:03:14.309Z,96917.75
2022-12-26T01:08:19.887Z,96917.72
2022-12-26T01:13:27.335Z,96930.81
2022-12-26T01:18:32.714Z,96942.25
2022-12-26T01:23:36.328Z,96953.53
2022-12-26T01:28:39.909Z,96934.16
2022-12-26T01:33:44.881Z,96923.44
2022-12-26T01:38:48.491Z,96920.22
2022-12-26T01:43:58.268Z,96924.25
2022-12-26T01:49:10.308Z,96925.06
2022-12-26T01:54:37.913Z,96933.44
2022-12-26T01:59:40.948Z,96914.66
2022-12-26T02:05:07.555Z,96926.09
2022-12-26T02:10:17.487Z,96936.16
2022-12-26T02:15:21.134Z,96943.69
2022-12-26T02:20:28.850Z,96950.72
2022-12-26T02:26:01.266Z,96958.81
2022-12-26T02:31:14.591Z,96949.22
2022-12-26T02:36:46.869Z,96939.47
2022-12-26T02:42:01.837Z,96948.41
2022-12-26T02:47:13.522Z,96969.03
2022-12-26T02:52:40.376Z,96956.03
2022-12-26T02:58:17.322Z,96979.34
2022-12-26T03:03:46.335Z,96988.09
2022-12-26T03:09:11.526Z,96987.13
2022-12-26T03:14:20.330Z,96989.06
2022-12-26T03:19:29.118Z,96992.09
2022-12-26T03:24:52.767Z,96993.00
2022-12-26T03:30:13.542Z,96979.63
2022-12-26T03:35:18.618Z,96988.50
2022-12-26T03:41:03.237Z,96999.50
2022-12-26T03:46:36.306Z,96989.50
2022-12-26T03:52:03.651Z,96998.88
2022-12-26T03:57:29.700Z,96998.19
2022-12-26T04:02:52.416Z,96996.09
2022-12-26T04:08:19.963Z,97003.25
2022-12-26T04:13:45.936Z,97002.94
2022-12-26T04:19:28.653Z,96982.56
2022-12-26T04:24:55.673Z,96982.97
2022-12-26T04:30:16.706Z,97000.25
2022-12-26T04:35:42.120Z,97005.63
2022-12-26T04:41:10.326Z,96996.13
2022-12-26T04:46:15.201Z,96989.31
2022-12-26T04:51:18.880Z,96984.97
2022-12-26T04:56:24.035Z,96975.41
2022-12-26T05:01:45.284Z,96971.72
2022-12-26T05:07:06.727Z,96943.09
2022-12-26T05:12:11.843Z,96938.34
2022-12-26T05:17:33.852Z,96946.00
2022-12-26T05:22:57.841Z,96946.94
2022-12-26T05:28:20.527Z,96938.25
2022-12-26T05:33:41.637Z,96953.44
2022-12-26T05:38:45.534Z,96950.97
2022-12-26T05:43:50.510Z,96950.00
2022-12-26T05:48:54.790Z,96961.94
2022-12-26T05:53:58.786Z,96964.75
2022-12-26T05:59:03.844Z,96978.38
2022-12-26T06:04:07.372Z,96979.50
2022-12-26T06:09:11.058Z,96965.66
2022-12-26T06:14:16.584Z,96976.97
2022-12-26T06:19:20.294Z,96993.63
2022-12-26T06:24:23.995Z,96997.38
2022-12-26T06:29:29.092Z,97004.38
2022-12-26T06:34:32.805Z,96981.56
2022-12-26T06:39:36.486Z,96994.50
2022-12-26T06:44:41.415Z,97000.50
2022-12-26T06:49:45.009Z,96992.31
2022-12-26T06:54:48.638Z,97014.69
2022-12-26T06:59:53.674Z,97029.94
2022-12-26T07:04:57.406Z,97038.75
2022-12-26T07:10:01.124Z,97054.53
2022-12-26T07:15:10.114Z,97043.97
2022-12-26T07:20:14.336Z,97034.06
2022-12-26T07:25:18.069Z,97069.88
2022-12-26T07:30:23.485Z,97077.56
2022-12-26T07:35:28.922Z,97094.16
2022-12-26T07:40:32.610Z,97080.06
2022-12-26T07:45:43.382Z,97069.81
2022-12-26T07:50:49.781Z,97079.94
2022-12-26T07:55:53.479Z,97105.75
2022-12-26T08:01:01.995Z,97105.63
2022-12-26T08:06:05.759Z,97108.56
2022-12-26T08:11:10.490Z,97094.38
2022-12-26T08:16:15.912Z,97096.03
2022-12-26T08:21:19.890Z,97093.09
2022-12-26T08:26:23.600Z,97076.50
2022-12-26T08:31:28.854Z,97071.63
2022-12-26T08:36:32.480Z,97078.19
2022-12-26T08:41:36.954Z,97077.31
2022-12-26T08:46:42.109Z,97081.25
2022-12-26T08:51:45.838Z,97104.41
2022-12-26T08:56:49.370Z,97096.03
2022-12-26T09:01:54.530Z,97124.16
2022-12-26T09:06:58.109Z,97124.94
2022-12-26T09:12:02.080Z,97122.97
2022-12-26T09:17:07.342Z,97116.06
2022-12-26T09:22:33.526Z,97101.13
2022-12-26T09:27:38.967Z,97103.31
2022-12-26T09:32:43.873Z,97106.00
2022-12-26T09:37:47.974Z,97077.28
2022-12-26T09:43:01.588Z,97075.28
2022-12-26T09:48:14.541Z,97085.56
2022-12-26T09:53:25.467Z,97069.94
2022-12-26T09:58:31.491Z,97109.00
2022-12-26T10:03:41.406Z,97129.13
2022-12-26T10:08:57.752Z,97122.75
2022-12-26T10:14:09.747Z,97121.56
2022-12-26T10:19:33.067Z,97112.50
2022-12-26T10:24:40.502Z,97118.47
2022-12-26T10:29:49.167Z,97134.81
2022-12-26T10:34:55.323Z,97149.22
2022-12-26T10:40:07.390Z,97157.81
2022-12-26T10:45:17.248Z,97149.44
2022-12-26T10:50:27.867Z,97154.94
2022-12-26T10:55:34.464Z,97157.94
2022-12-26T11:00:38.482Z,97163.13
2022-12-26T11:06:07.067Z,97175.03
2022-12-26T11:11:14.310Z,97190.53
2022-12-26T11:16:26.770Z,97166.69
2022-12-26T11:21:33.605Z,97160.44
2022-12-26T11:26:38.839Z,97166.31
2022-12-26T11:31:52.090Z,97154.75
2022-12-26T11:36:57.128Z,97157.28
2022-12-26T11:42:01.332Z,97152.47
2022-12-26T11:47:11.743Z,97170.16
2022-12-26T11:52:37.947Z,97177.91
2022-12-26T11:57:41.590Z,97180.94
2022-12-26T12:02:45.471Z,97174.53
2022-12-26T12:08:07.959Z,97180.44
2022-12-26T12:13:21.026Z,97185.69
2022-12-26T12:18:40.343Z,97177.56
2022-12-26T12:24:02.845Z,97172.94
2022-12-26T12:29:30.341Z,97154.69
2022-12-26T12:34:53.125Z,97155.34
2022-12-26T12:40:04.160Z,97155.06
2022-12-26T12:45:30.921Z,97149.16
2022-12-26T12:50:40.904Z,97150.50
2022-12-26T12:56:00.496Z,97156.53
2022-12-26T13:01:11.237Z,97143.84
2022-12-26T13:06:20.019Z,97134.06
2022-12-26T13:11:29.381Z,97129.59
2022-12-26T13:16:43.542Z,97119.69
2022-12-26T13:21:49.785Z,97117.66
2022-12-26T13:27:03.258Z,97121.41
2022-12-26T13:32:18.581Z,97112.47
2022-12-26T13:37:57.954Z,97113.81
2022-12-26T13:43:27.014Z,97110.09
2022-12-26T13:49:07.692Z,97113.53
2022-12-26T13:54:14.243Z,97115.38
2022-12-26T13:59:26.987Z,97114.50
2022-12-26T14:04:49.240Z,97111.84
2022-12-26T14:10:06.224Z,97102.34
2022-12-26T14:15:23.151Z,97103.88
2022-12-26T14:20:41.737Z,97099.19
2022-12-26T14:25:54.191Z,97106.09
2022-12-26T14:31:16.006Z,97107.31
2022-12-26T14:36:33.967Z,97103.22
2022-12-26T14:42:28.381Z,97088.38
2022-12-26T14:47:41.139Z,97100.41
2022-12-26T14:52:45.759Z,97098.69
2022-12-26T14:57:50.061Z,97116.66
2022-12-26T15:03:28.015Z,97114.22
2022-12-26T15:08:51.701Z,97116.75
2022-12-26T15:14:29.052Z,97130.78
2022-12-26T15:20:08.617Z,97135.09
2022-12-26T15:25:37.765Z,97130.78
2022-12-26T15:30:57.102Z,97150.72
2022-12-26T15:36:08.345Z,97143.28
2022-12-26T15:41:15.804Z,97130.47
2022-12-26T15:46:23.983Z,97130.84
2022-12-26T15:51:41.252Z,97126.53
2022-12-26T15:56:56.004Z,97129.03
2022-12-26T16:02:00.821Z,97127.88
2022-12-26T16:07:17.219Z,97162.53
2022-12-26T16:12:26.916Z,97156.09
2022-12-26T16:17:31.097Z,97154.19
2022-12-26T16:22:47.282Z,97147.25
2022-12-26T16:27:55.083Z,97141.38
2022-12-26T16:33:01.261Z,97143.56
2022-12-26T16:38:13.057Z,97177.22
2022-12-26T16:43:29.622Z,97176.66
2022-12-26T16:48:35.876Z,97178.13
2022-12-26T16:53:46.779Z,97192.63
2022-12-26T16:58:57.804Z,97175.81
2022-12-26T17:04:09.234Z,97182.28
2022-12-26T17:09:17.443Z,97179.06
2022-12-26T17:14:23.916Z,97186.34
2022-12-26T17:19:31.838Z,97173.88
2022-12-26T17:24:37.500Z,97170.50
2022-12-26T17:29:53.720Z,97160.94
2022-12-26T17:35:02.051Z,97187.03
2022-12-26T17:40:24.216Z,97180.69
2022-12-26T17:45:29.044Z,97196.75
2022-12-26T17:50:35.504Z,97191.25
2022-12-26T17:55:40.923Z,97214.72
2022-12-26T18:00:45.503Z,97201.19
2022-12-26T18:05:49.850Z,97229.09
2022-12-26T18:10:54.786Z,97282.66
2022-12-26T18:15:59.247Z,97319.22
2022-12-26T18:21:03.386Z,97307.53
2022-12-26T18:26:13.775Z,97277.31
2022-12-26T18:31:18.286Z,97286.28
2022-12-26T18:36:24.241Z,97300.28
2022-12-26T18:41:29.429Z,97318.13
2022-12-26T18:46:33.210Z,97312.81
2022-12-26T18:51:39.496Z,97290.25
2022-12-26T18:56:44.755Z,97309.22
2022-12-26T19:01:48.780Z,97320.78
2022-12-26T19:06:53.447Z,97305.63
2022-12-26T19:11:58.935Z,97289.25
2022-12-26T19:17:02.457Z,97274.78
2022-12-26T19:22:06.306Z,97291.09
2022-12-26T19:27:11.691Z,97307.59
2022-12-26T19:32:15.593Z,97315.28
2022-12-26T19:37:19.454Z,97315.69
2022-12-26T19:42:25.313Z,97310.09
2022-12-26T19:47:29.386Z,97310.72
2022-12-26T19:52:34.456Z,97336.41
2022-12-26T19:57:39.749Z,97359.78
2022-12-26T20:02:43.781Z,97352.34
2022-12-26T20:07:47.608Z,97366.34
2022-12-26T20:12:52.734Z,97378.94
2022-12-26T20:17:57.071Z,97389.69
2022-12-26T20:23:01.013Z,97407.69
2022-12-26T20:28:06.913Z,97400.63
2022-12-26T20:33:11.466Z,97412.16
2022-12-26T20:38:15.483Z,97409.59
2022-12-26T20:43:21.200Z,97428.16
2022-12-26T20:48:25.881Z,97438.16
2022-12-26T20:53:30.135Z,97446.06
2022-12-26T20:58:36.201Z,97458.88
2022-12-26T21:03:40.538Z,97463.03
2022-12-26T21:08:46.279Z,97478.47
2022-12-26T21:13:52.892Z,97485.69
2022-12-26T21:18:57.196Z,97482.47
2022-12-26T21:24:02.351Z,97484.28
2022-12-26T21:29:10.438Z,97499.84
2022-12-26T21:34:17.405Z,97520.47
2022-12-26T21:39:21.142Z,97535.59
2022-12-26T21:44:26.668Z,97560.09
2022-12-26T21:49:30.930Z,97577.84
2022-12-26T21:54:52.698Z,97603.41
2022-12-26T21:59:58.595Z,97586.84
2022-12-26T22:05:03.099Z,97601.84
2022-12-26T22:10:07.950Z,97617.59
2022-12-26T22:15:27.118Z,97625.31
2022-12-26T22:20:30.819Z,97591.41
2022-12-26T22:25:34.499Z,97628.03
2022-12-26T22:30:39.437Z,97630.66
2022-12-26T22:35:42.931Z,97635.41
2022-12-26T22:40:55.163Z,97647.41
2022-12-26T22:46:00.384Z,97664.41
2022-12-26T22:51:04.421Z,97684.88
2022-12-26T22:56:08.626Z,97691.69
2022-12-26T23:01:15.593Z,97707.59
2022-12-26T23:06:21.436Z,97727.91
2022-12-26T23:11:33.987Z,97743.22
2022-12-26T23:16:44.004Z,97755.44
2022-12-26T23:21:50.622Z,97760.69
2022-12-26T23:26:55.973Z,97781.78
2022-12-26T23:32:02.224Z,97804.44
2022-12-26T23:37:07.375Z,97806.25
2022-12-26T23:42:10.893Z,97815.38
2022-12-26T23:47:15.924Z,97810.88
2022-12-26T23:52:19.526Z,97810.50
2022-12-26T23:57:23.174Z,97820.94
